Terminal Aerodrome Forecast
Issued by NWS

Home | Current Version | Previous Version | Text Only | Print | Product List | Glossary On
Versions: 1 2 3 4 5 6 7 8 9 10 11 12 13 14 15 16 17 18 19 20 21 22 23 24 25 26 27 28 29 30 31 32 33 34 35 36 37 38 39 40 41
000
FTUS44 KHGX 161137
TAFSGR
TAF
KSGR 161137Z 1612/1712 09005KT P6SM VCSH SCT015 SCT025 BKN250
      TEMPO 1614/1616 SHRA
     FM161600 11010KT P6SM VCTS BKN035CB BKN250
      TEMPO 1616/1620 TSRA BKN030CB OVC045
     FM162200 13006KT P6SM SCT050 BKN250
     FM170100 15004KT P6SM SCT030 BKN250
     FM171100 16004KT P6SM VCSH SCT025 BKN250=

USA.gov is the U.S. government's official web portal to all federal, state and local government web resources and services.